createdAt,value
2022-12-22T00:00:54.325Z,59.60
2022-12-22T00:04:06.817Z,59.10
2022-12-22T00:07:19.279Z,58.10
2022-12-22T00:10:31.789Z,58.50
2022-12-22T00:13:44.227Z,59.80
2022-12-22T00:16:58.275Z,59.30
2022-12-22T00:20:16.673Z,59.30
2022-12-22T00:23:31.580Z,59.30
2022-12-22T00:26:45.130Z,59.10
2022-12-22T00:30:01.411Z,59.60
2022-12-22T00:33:14.069Z,59.40
2022-12-22T00:36:29.867Z,58.80
2022-12-22T00:39:42.567Z,57.10
2022-12-22T00:42:55.628Z,57.70
2022-12-22T00:46:09.505Z,57.10
2022-12-22T00:49:22.500Z,57.00
2022-12-22T00:52:36.133Z,57.40
2022-12-22T00:55:52.260Z,57.20
2022-12-22T00:59:04.657Z,55.80
2022-12-22T01:02:17.318Z,56.20
2022-12-22T01:05:30.496Z,56.40
2022-12-22T01:08:42.894Z,55.50
2022-12-22T01:11:55.616Z,55.50
2022-12-22T01:15:08.199Z,55.70
2022-12-22T01:18:20.487Z,57.20
2022-12-22T01:21:40.599Z,55.10
2022-12-22T01:24:53.074Z,56.20
2022-12-22T01:28:05.661Z,57.50
2022-12-22T01:31:30.221Z,57.70
2022-12-22T01:34:42.296Z,58.90
2022-12-22T01:37:54.526Z,57.80
2022-12-22T01:41:07.016Z,58.10
2022-12-22T01:44:19.494Z,58.10
2022-12-22T01:47:54.607Z,57.40
2022-12-22T01:51:07.126Z,58.00
2022-12-22T01:54:20.673Z,57.10
2022-12-22T01:57:33.120Z,56.70
2022-12-22T02:00:45.623Z,56.00
2022-12-22T02:03:58.263Z,56.60
2022-12-22T02:07:18.432Z,56.60
2022-12-22T02:10:39.513Z,57.30
2022-12-22T02:14:33.746Z,56.30
2022-12-22T02:18:19.807Z,55.50
2022-12-22T02:21:37.932Z,56.80
2022-12-22T02:25:00.428Z,56.50
2022-12-22T02:28:15.108Z,56.70
2022-12-22T02:31:27.671Z,57.40
2022-12-22T02:34:40.239Z,56.70
2022-12-22T02:38:10.682Z,55.30
2022-12-22T02:41:41.431Z,56.60
2022-12-22T02:45:02.560Z,56.20
2022-12-22T02:48:32.988Z,57.20
2022-12-22T02:51:49.531Z,55.50
2022-12-22T02:55:05.842Z,55.70
2022-12-22T02:58:19.924Z,56.70
2022-12-22T03:01:32.541Z,56.30
2022-12-22T03:04:45.056Z,55.60
2022-12-22T03:07:58.341Z,56.10
2022-12-22T03:11:12.930Z,55.50
2022-12-22T03:14:25.502Z,55.50
2022-12-22T03:17:40.039Z,54.40
2022-12-22T03:20:52.543Z,55.60
2022-12-22T03:24:05.039Z,56.60
2022-12-22T03:26:59.319Z,56.80
2022-12-22T03:29:53.552Z,56.50
2022-12-22T03:32:47.968Z,55.80
2022-12-22T03:35:42.260Z,54.40
2022-12-22T03:38:37.084Z,54.80
2022-12-22T03:41:49.459Z,54.90
2022-12-22T03:45:01.945Z,54.70
2022-12-22T03:47:56.391Z,53.70
2022-12-22T03:50:50.667Z,55.40
2022-12-22T03:53:45.009Z,55.40
2022-12-22T03:56:39.670Z,52.90
2022-12-22T03:59:34.008Z,52.00
2022-12-22T04:02:28.491Z,54.00
2022-12-22T04:05:23.041Z,54.10
2022-12-22T04:08:17.256Z,53.00
2022-12-22T04:11:35.062Z,53.90
2022-12-22T04:14:34.231Z,53.40
2022-12-22T04:17:29.302Z,52.50
2022-12-22T04:20:27.973Z,51.80
2022-12-22T04:23:22.549Z,53.30
2022-12-22T04:26:16.830Z,52.40
2022-12-22T04:29:11.212Z,51.10
2022-12-22T04:32:05.679Z,52.80
2022-12-22T04:35:00.084Z,52.10
2022-12-22T04:37:54.430Z,53.50
2022-12-22T04:40:48.965Z,53.20
2022-12-22T04:43:43.230Z,51.80
2022-12-22T04:46:37.538Z,51.60
2022-12-22T04:49:31.818Z,52.20
2022-12-22T04:52:26.117Z,52.80
2022-12-22T04:55:20.584Z,52.30
2022-12-22T04:58:15.367Z,52.70
2022-12-22T05:01:16.064Z,52.70
2022-12-22T05:04:10.528Z,52.70
2022-12-22T05:07:04.762Z,52.80
2022-12-22T05:09:59.038Z,52.50
2022-12-22T05:12:56.591Z,52.10
2022-12-22T05:15:50.870Z,52.60
2022-12-22T05:18:47.045Z,52.50
2022-12-22T05:21:41.434Z,53.10
2022-12-22T05:24:35.651Z,52.90
2022-12-22T05:27:29.961Z,52.10
2022-12-22T05:30:24.345Z,51.90
2022-12-22T05:33:18.697Z,51.40
2022-12-22T05:36:13.179Z,49.50
2022-12-22T05:39:07.613Z,48.90
2022-12-22T05:42:01.873Z,50.30
2022-12-22T05:44:56.181Z,51.30
2022-12-22T05:47:52.792Z,50.40
2022-12-22T05:50:47.240Z,50.90
2022-12-22T05:53:42.093Z,50.70
2022-12-22T05:56:36.420Z,50.60
2022-12-22T05:59:30.711Z,50.20
2022-12-22T06:02:25.339Z,49.40
2022-12-22T06:05:20.758Z,50.60
2022-12-22T06:08:15.106Z,49.90
2022-12-22T06:11:09.337Z,49.30
2022-12-22T06:14:03.772Z,48.70
2022-12-22T06:16:58.076Z,49.20
2022-12-22T06:19:52.562Z,49.30
2022-12-22T06:22:46.812Z,49.10
2022-12-22T06:25:41.175Z,49.10
2022-12-22T06:28:35.596Z,49.10
2022-12-22T06:31:30.032Z,48.10
2022-12-22T06:34:24.513Z,48.50
2022-12-22T06:37:18.889Z,46.90
2022-12-22T06:40:13.655Z,47.50
2022-12-22T06:43:11.086Z,47.00
2022-12-22T06:46:05.422Z,48.10
2022-12-22T06:48:59.755Z,48.40
2022-12-22T06:51:54.228Z,48.20
2022-12-22T06:54:48.599Z,48.50
2022-12-22T06:57:42.886Z,47.50
2022-12-22T07:00:37.549Z,47.50
2022-12-22T07:03:31.865Z,47.90
2022-12-22T07:06:26.282Z,48.20
2022-12-22T07:09:20.530Z,48.40
2022-12-22T07:12:15.266Z,48.00
2022-12-22T07:15:11.135Z,48.00
2022-12-22T07:18:05.687Z,47.70
2022-12-22T07:21:00.515Z,48.80
2022-12-22T07:23:54.809Z,48.50
2022-12-22T07:26:49.064Z,48.40
2022-12-22T07:29:43.450Z,48.90
2022-12-22T07:32:37.675Z,49.80
2022-12-22T07:35:32.414Z,49.60
2022-12-22T07:38:26.723Z,49.40
2022-12-22T07:41:40.148Z,49.50
2022-12-22T07:44:34.360Z,48.90
2022-12-22T07:47:33.372Z,49.70
2022-12-22T07:50:29.994Z,49.80
2022-12-22T07:53:24.198Z,49.90
2022-12-22T07:56:18.491Z,50.00
2022-12-22T07:59:13.875Z,50.40
2022-12-22T08:02:08.142Z,50.40
2022-12-22T08:05:02.666Z,50.20
2022-12-22T08:07:56.950Z,51.10
2022-12-22T08:10:51.311Z,50.50
2022-12-22T08:13:45.620Z,51.00
2022-12-22T08:16:40.042Z,51.00
2022-12-22T08:19:34.463Z,51.30
2022-12-22T08:22:31.252Z,51.60
2022-12-22T08:25:25.651Z,52.10
2022-12-22T08:28:20.239Z,52.50
2022-12-22T08:31:15.018Z,53.00
2022-12-22T08:34:12.204Z,53.10
2022-12-22T08:37:07.397Z,53.20
2022-12-22T08:40:05.987Z,53.20
2022-12-22T08:43:09.207Z,53.40
2022-12-22T08:46:03.703Z,53.70
2022-12-22T08:48:57.915Z,53.70
2022-12-22T08:51:52.846Z,53.90
2022-12-22T08:54:47.134Z,54.20
2022-12-22T08:57:41.471Z,54.20
2022-12-22T09:00:35.786Z,54.20
2022-12-22T09:03:30.255Z,54.60
2022-12-22T09:06:27.524Z,54.30
2022-12-22T09:09:25.494Z,54.20
2022-12-22T09:12:20.296Z,53.90
2022-12-22T09:15:15.549Z,54.00
2022-12-22T09:18:09.751Z,53.90
2022-12-22T09:21:04.087Z,53.70
2022-12-22T09:23:59.239Z,53.50
2022-12-22T09:26:53.499Z,53.70
2022-12-22T09:29:47.721Z,53.70
2022-12-22T09:32:42.046Z,53.00
2022-12-22T09:35:36.280Z,53.10
2022-12-22T09:38:30.670Z,53.10
2022-12-22T09:41:39.541Z,53.20
2022-12-22T09:44:46.259Z,52.80
2022-12-22T09:47:42.482Z,52.20
2022-12-22T09:50:39.231Z,52.10
2022-12-22T09:53:33.873Z,52.30
2022-12-22T09:56:30.615Z,51.70
2022-12-22T09:59:28.812Z,51.50
2022-12-22T10:02:43.558Z,51.00
2022-12-22T10:05:55.378Z,51.20
2022-12-22T10:08:49.625Z,50.90
2022-12-22T10:11:52.621Z,51.00
2022-12-22T10:14:49.366Z,51.00
2022-12-22T10:17:43.596Z,51.10
2022-12-22T10:20:39.760Z,51.10
2022-12-22T10:23:36.605Z,51.00
2022-12-22T10:26:36.231Z,51.40
2022-12-22T10:29:31.265Z,51.50
2022-12-22T10:32:25.677Z,51.60
2022-12-22T10:35:20.132Z,51.50
2022-12-22T10:38:39.150Z,51.60
2022-12-22T10:41:38.810Z,51.30
2022-12-22T10:44:36.971Z,50.70
2022-12-22T10:47:31.272Z,50.40
2022-12-22T10:50:25.763Z,50.70
2022-12-22T10:53:20.032Z,50.00
2022-12-22T10:56:32.359Z,50.00
2022-12-22T10:59:26.986Z,50.30
2022-12-22T11:02:24.555Z,50.70
2022-12-22T11:05:18.867Z,51.00
2022-12-22T11:08:20.061Z,51.50
2022-12-22T11:11:41.792Z,51.80
2022-12-22T11:14:44.985Z,52.40
2022-12-22T11:17:49.841Z,53.00
2022-12-22T11:21:01.696Z,53.50
2022-12-22T11:24:25.824Z,54.00
2022-12-22T11:27:23.052Z,54.40
2022-12-22T11:30:20.081Z,54.60
2022-12-22T11:33:55.793Z,54.90
2022-12-22T11:37:14.696Z,55.00
2022-12-22T11:40:18.080Z,55.60
2022-12-22T11:43:51.628Z,56.10
2022-12-22T11:46:55.058Z,56.40
2022-12-22T11:49:55.214Z,57.00
2022-12-22T11:53:17.269Z,57.40
2022-12-22T11:56:17.451Z,57.60
2022-12-22T11:59:33.389Z,57.90
2022-12-22T12:02:42.951Z,58.10
2022-12-22T12:06:35.534Z,58.10
2022-12-22T12:09:44.960Z,58.20
2022-12-22T12:13:06.116Z,58.20
2022-12-22T12:16:26.132Z,58.20
2022-12-22T12:19:32.933Z,58.40
2022-12-22T12:23:03.953Z,58.40
2022-12-22T12:26:39.409Z,58.50
2022-12-22T12:29:46.608Z,58.60
2022-12-22T12:33:37.586Z,58.30
2022-12-22T12:36:46.345Z,58.40
2022-12-22T12:40:09.519Z,58.60
2022-12-22T12:43:06.769Z,58.70
2022-12-22T12:46:02.835Z,59.00
2022-12-22T12:48:57.575Z,59.10
2022-12-22T12:51:52.283Z,59.20
2022-12-22T12:54:50.719Z,59.30
2022-12-22T12:57:50.269Z,59.40
2022-12-22T13:00:52.541Z,59.40
2022-12-22T13:04:06.761Z,59.60
2022-12-22T13:07:01.092Z,59.60
2022-12-22T13:10:25.685Z,59.60
2022-12-22T13:13:26.077Z,59.70
2022-12-22T13:16:20.373Z,59.80
2022-12-22T13:19:24.805Z,59.80
2022-12-22T13:22:19.783Z,59.70
2022-12-22T13:25:18.468Z,59.70
2022-12-22T13:28:18.179Z,59.80
2022-12-22T13:31:23.050Z,59.80
2022-12-22T13:35:04.481Z,60.70
2022-12-22T13:37:55.453Z,60.20
2022-12-22T13:40:50.795Z,60.20
2022-12-22T13:43:50.759Z,60.30
2022-12-22T13:46:45.770Z,60.20
2022-12-22T13:50:07.861Z,60.40
2022-12-22T13:52:59.857Z,60.30
2022-12-22T13:55:54.598Z,60.20
2022-12-22T13:58:53.419Z,60.20
2022-12-22T14:01:59.071Z,60.30
2022-12-22T14:05:12.977Z,60.30
2022-12-22T14:08:08.622Z,60.30
2022-12-22T14:11:04.444Z,60.50
2022-12-22T14:13:58.696Z,60.70
2022-12-22T14:16:55.646Z,60.80
2022-12-22T14:19:52.702Z,60.70
2022-12-22T14:23:07.136Z,61.00
2022-12-22T14:26:03.123Z,61.10
2022-12-22T14:28:58.715Z,61.20
2022-12-22T14:32:04.921Z,61.20
2022-12-22T14:34:59.286Z,61.50
2022-12-22T14:38:08.712Z,61.70
2022-12-22T14:41:32.688Z,62.50
2022-12-22T14:44:34.741Z,61.80
2022-12-22T14:47:29.297Z,61.70
2022-12-22T14:50:29.296Z,61.60
2022-12-22T14:53:32.112Z,61.70
2022-12-22T14:56:29.125Z,61.80
2022-12-22T14:59:26.888Z,62.00
2022-12-22T15:02:38.274Z,62.10
2022-12-22T15:05:40.620Z,62.10
2022-12-22T15:08:42.963Z,62.40
2022-12-22T15:11:44.791Z,62.50
2022-12-22T15:14:39.806Z,62.70
2022-12-22T15:17:34.108Z,62.80
2022-12-22T15:20:35.268Z,63.10
2022-12-22T15:23:33.178Z,63.30
2022-12-22T15:26:28.896Z,63.70
2022-12-22T15:29:25.005Z,63.70
2022-12-22T15:32:19.242Z,63.90
2022-12-22T15:35:19.486Z,64.00
2022-12-22T15:38:22.459Z,64.20
2022-12-22T15:41:16.751Z,64.30
2022-12-22T15:44:11.124Z,64.40
2022-12-22T15:47:05.416Z,64.50
2022-12-22T15:49:59.619Z,64.60
2022-12-22T15:52:57.298Z,64.70
2022-12-22T15:55:54.678Z,64.70
2022-12-22T15:58:49.426Z,64.80
2022-12-22T16:01:43.849Z,64.70
2022-12-22T16:04:38.226Z,65.00
2022-12-22T16:07:33.276Z,64.90
2022-12-22T16:10:31.131Z,65.10
2022-12-22T16:13:30.985Z,65.20
2022-12-22T16:16:25.269Z,65.40
2022-12-22T16:19:20.586Z,65.50
2022-12-22T16:22:16.688Z,65.60
2022-12-22T16:25:20.139Z,65.60
2022-12-22T16:28:26.048Z,65.70
2022-12-22T16:31:25.739Z,65.80
2022-12-22T16:34:20.152Z,65.80
2022-12-22T16:37:14.437Z,66.00
2022-12-22T16:40:09.534Z,66.30
2022-12-22T16:46:29.976Z,66.60
2022-12-22T16:49:26.864Z,66.40
2022-12-22T16:52:30.683Z,66.60
2022-12-22T16:55:25.061Z,66.70
2022-12-22T16:58:19.380Z,66.90
2022-12-22T17:01:33.407Z,67.20
2022-12-22T17:04:31.909Z,67.40
2022-12-22T17:07:26.136Z,67.70
2022-12-22T17:10:22.345Z,67.70
2022-12-22T17:13:16.787Z,67.80
2022-12-22T17:16:21.672Z,68.00
2022-12-22T17:19:16.535Z,68.10
2022-12-22T17:22:26.732Z,68.20
2022-12-22T17:25:27.064Z,68.20
2022-12-22T17:28:21.604Z,68.40
2022-12-22T17:31:21.891Z,68.60
2022-12-22T17:34:20.973Z,68.80
2022-12-22T17:37:20.873Z,69.00
2022-12-22T17:40:33.092Z,69.20
2022-12-22T17:43:27.561Z,69.50
2022-12-22T17:46:23.397Z,70.30
2022-12-22T17:49:21.013Z,69.60
2022-12-22T17:52:23.929Z,69.70
2022-12-22T17:56:05.974Z,69.70
2022-12-22T17:58:44.674Z,69.70
2022-12-22T18:01:40.589Z,69.80
2022-12-22T18:04:35.120Z,70.10
2022-12-22T18:07:29.823Z,70.30
2022-12-22T18:10:28.765Z,71.00
2022-12-22T18:13:27.985Z,70.10
2022-12-22T18:16:24.252Z,70.20
2022-12-22T18:19:18.655Z,70.40
2022-12-22T18:22:19.699Z,70.20
2022-12-22T18:25:25.562Z,70.40
2022-12-22T18:28:20.411Z,70.40
2022-12-22T18:31:14.815Z,70.30
2022-12-22T18:34:09.046Z,70.50
2022-12-22T18:37:04.871Z,70.70
2022-12-22T18:39:59.107Z,70.80
2022-12-22T18:42:54.490Z,71.10
2022-12-22T18:45:49.000Z,71.10
2022-12-22T18:48:43.225Z,71.10
2022-12-22T18:51:37.567Z,71.20
2022-12-22T18:54:38.015Z,71.50
2022-12-22T18:57:32.253Z,71.60
2022-12-22T19:00:30.497Z,71.90
2022-12-22T19:03:30.245Z,72.00
2022-12-22T19:06:25.334Z,72.10
2022-12-22T19:09:19.852Z,72.30
2022-12-22T19:12:19.656Z,72.70
2022-12-22T19:15:22.519Z,73.20
2022-12-22T19:18:24.515Z,73.60
2022-12-22T19:21:21.301Z,74.00
2022-12-22T19:24:15.676Z,74.10
2022-12-22T19:27:24.353Z,74.20
2022-12-22T19:30:22.234Z,74.50
2022-12-22T19:33:42.118Z,74.60
2022-12-22T19:36:36.448Z,74.80
2022-12-22T19:39:30.810Z,74.80
2022-12-22T19:42:32.475Z,75.10
2022-12-22T19:45:35.624Z,75.40
2022-12-22T19:48:30.144Z,75.60
2022-12-22T19:51:24.540Z,76.00
2022-12-22T19:54:19.064Z,76.10
2022-12-22T19:57:21.485Z,76.40
2022-12-22T20:00:19.536Z,76.50
2022-12-22T20:03:15.238Z,76.50
2022-12-22T20:06:10.159Z,76.70
2022-12-22T20:09:04.544Z,76.90
2022-12-22T20:11:58.779Z,77.10
2022-12-22T20:14:54.487Z,77.30
2022-12-22T20:17:50.010Z,77.60
2022-12-22T20:20:45.611Z,77.80
2022-12-22T20:23:40.968Z,77.80
2022-12-22T20:26:35.837Z,78.10
2022-12-22T20:29:30.043Z,78.30
2022-12-22T20:32:27.934Z,78.30
2022-12-22T20:35:23.836Z,78.50
2022-12-22T20:38:47.795Z,78.50
2022-12-22T20:41:44.541Z,78.50
2022-12-22T20:45:02.369Z,78.70
2022-12-22T20:47:58.431Z,78.70
2022-12-22T20:50:52.691Z,79.00
2022-12-22T20:53:48.168Z,79.00
2022-12-22T20:56:43.346Z,80.10
2022-12-22T20:59:37.637Z,79.50
2022-12-22T21:02:32.209Z,79.80
2022-12-22T21:05:26.596Z,80.00
2022-12-22T21:08:26.874Z,79.90
2022-12-22T21:11:21.197Z,79.60
2022-12-22T21:14:15.505Z,79.80
2022-12-22T21:17:18.169Z,80.30
2022-12-22T21:20:24.086Z,81.40
2022-12-22T21:23:18.534Z,81.80
2022-12-22T21:26:37.092Z,81.30
2022-12-22T21:29:31.377Z,81.00
2022-12-22T21:32:25.827Z,81.30
2022-12-22T21:35:29.082Z,80.70
2022-12-22T21:38:26.181Z,80.20
2022-12-22T21:41:20.367Z,80.40
2022-12-22T21:44:14.904Z,80.40
2022-12-22T21:47:11.877Z,79.80
2022-12-22T21:50:07.277Z,79.30
2022-12-22T21:53:01.758Z,79.20
2022-12-22T21:55:57.339Z,78.80
2022-12-22T21:58:52.755Z,79.30
2022-12-22T22:01:47.932Z,78.60
2022-12-22T22:04:45.262Z,79.30
2022-12-22T22:07:42.637Z,79.80
2022-12-22T22:10:40.150Z,77.90
2022-12-22T22:13:34.578Z,73.50
2022-12-22T22:16:28.920Z,72.70
2022-12-22T22:19:23.302Z,70.40
2022-12-22T22:22:17.642Z,68.90
2022-12-22T22:25:14.013Z,67.60
2022-12-22T22:28:08.676Z,65.40
2022-12-22T22:31:03.886Z,63.70
2022-12-22T22:33:58.363Z,63.50
2022-12-22T22:36:53.608Z,62.10
2022-12-22T22:39:47.862Z,59.50
2022-12-22T22:42:42.808Z,59.20
2022-12-22T22:45:40.889Z,59.20
2022-12-22T22:48:35.090Z,58.40
2022-12-22T22:51:29.474Z,58.10
2022-12-22T22:54:23.881Z,56.70
2022-12-22T22:57:18.287Z,57.10
2022-12-22T23:00:14.864Z,56.10
2022-12-22T23:03:09.352Z,55.90
2022-12-22T23:06:09.184Z,56.50
2022-12-22T23:09:03.687Z,56.40
2022-12-22T23:11:58.044Z,56.50
2022-12-22T23:14:52.333Z,56.50
2022-12-22T23:17:46.628Z,56.40
2022-12-22T23:20:46.358Z,56.30
2022-12-22T23:23:40.719Z,55.70
2022-12-22T23:26:35.006Z,55.10
2022-12-22T23:29:29.500Z,55.80
2022-12-22T23:32:24.111Z,55.40
2022-12-22T23:35:18.465Z,55.40
2022-12-22T23:38:12.810Z,54.80
2022-12-22T23:41:10.167Z,54.70
2022-12-22T23:44:04.450Z,54.20
2022-12-22T23:46:58.835Z,55.00
2022-12-22T23:49:53.050Z,55.00
2022-12-22T23:52:49.375Z,54.80
2022-12-22T23:55:50.392Z,54.70
2022-12-22T23:58:48.215Z,54.30
